Time;durP1;ratioP1;P1;durP2;ratioP2;P2;SDS_P1;SDS_P2;PMS_P1;PMS_P2;Temp;Humidity;BMP_temperature;BMP_pressure;BME280_temperature;BME280_humidity;BME280_pressure;Samples;Min_cycle;Max_cycle;Signal;HPM_P1;HPM_P2
2021/01/30 00:02:22;;;;;;;2.53;1.20;;;19.40;66.40;;;;;;5027861;28;20076;-29
2021/01/30 00:04:49;;;;;;;1.60;1.20;;;19.40;66.40;;;;;;5027118;28;20044;-32
2021/01/30 00:07:14;;;;;;;1.45;1.20;;;19.40;66.40;;;;;;5028104;28;20479;-29
2021/01/30 00:09:40;;;;;;;1.40;1.08;;;19.40;66.30;;;;;;5034573;28;20076;-29
2021/01/30 00:12:06;;;;;;;2.72;1.30;;;19.40;66.10;;;;;;5032566;28;20053;-28
2021/01/30 00:14:34;;;;;;;1.63;1.23;;;19.40;66.10;;;;;;5026691;28;20495;-31
2021/01/30 00:17:00;;;;;;;0.82;0.82;;;19.40;66.10;;;;;;5029091;28;20045;-31
2021/01/30 00:19:25;;;;;;;1.38;1.13;;;19.40;66.10;;;;;;5027294;28;20041;-40
2021/01/30 00:21:52;;;;;;;1.60;1.20;;;19.40;66.20;;;;;;5030990;28;20144;-31
2021/01/30 00:24:18;;;;;;;1.20;1.08;;;19.40;66.10;;;;;;5028905;28;20049;-26
2021/01/30 00:26:49;;;;;;;0.98;0.80;;;19.40;66.20;;;;;;5027903;28;20523;-26
2021/01/30 00:29:14;;;;;;;1.10;0.95;;;19.40;66.30;;;;;;5029301;28;20053;-31
2021/01/30 00:31:40;;;;;;;1.30;1.20;;;19.40;66.20;;;;;;5031221;28;20111;-29
2021/01/30 00:34:05;;;;;;;0.88;0.80;;;19.40;66.10;;;;;;5027732;28;20188;-26
2021/01/30 00:36:31;;;;;;;2.28;1.25;;;19.40;66.10;;;;;;5043989;28;20051;-26
2021/01/30 00:38:56;;;;;;;0.77;0.77;;;19.40;66.20;;;;;;5034592;28;20513;-35
2021/01/30 00:41:22;;;;;;;1.08;0.98;;;19.40;66.20;;;;;;5032679;28;20037;-28
2021/01/30 07:53:05;;;;;;;0.73;0.45;;;18.10;70.50;;;;;;5149877;27;20400;-29
2021/01/30 07:55:31;;;;;;;0.40;0.30;;;18.90;68.30;;;;;;5138287;27;20032;-37
2021/01/30 07:58:10;;;;;;;0.85;0.45;;;18.90;68.10;;;;;;5147879;27;20019;-31
2021/01/30 08:00:55;;;;;;;0.50;0.30;;;18.90;68.30;;;;;;5145844;27;20060;-29
2021/01/30 08:03:34;;;;;;;0.50;0.35;;;18.90;68.10;;;;;;5139704;27;20024;-29
2021/01/30 08:06:14;;;;;;;1.15;0.32;;;18.90;68.20;;;;;;5121458;27;20059;-29
2021/01/30 08:08:41;;;;;;;0.85;0.30;;;18.90;68.00;;;;;;5137054;27;20046;-28
2021/01/30 08:11:13;;;;;;;0.80;0.40;;;18.90;68.20;;;;;;5137267;27;20028;-25
2021/01/30 08:13:47;;;;;;;0.63;0.38;;;18.90;68.30;;;;;;5120817;27;20038;-28
2021/01/30 08:16:22;;;;;;;0.57;0.30;;;18.90;68.20;;;;;;5142167;27;20031;-34
2021/01/30 08:18:48;;;;;;;0.38;0.38;;;18.90;68.00;;;;;;5130619;27;20023;-32
2021/01/30 08:21:28;;;;;;;0.45;0.30;;;18.90;68.00;;;;;;5142639;27;20175;-29
2021/01/30 08:24:16;;;;;;;0.60;0.32;;;19.00;67.80;;;;;;5142880;27;20030;-27
2021/01/30 08:26:47;;;;;;;0.50;0.40;;;19.00;67.70;;;;;;5140576;27;20043;-27
2021/01/30 08:29:36;;;;;;;0.60;0.38;;;19.00;67.60;;;;;;5134109;27;20022;-26
2021/01/30 08:32:23;;;;;;;0.47;0.40;;;19.00;67.60;;;;;;5141427;27;20031;-26
2021/01/30 08:34:49;;;;;;;0.50;0.32;;;19.00;67.50;;;;;;5141506;27;20027;-28
2021/01/30 08:37:15;;;;;;;0.90;0.50;;;18.90;68.10;;;;;;5134573;27;20436;-28
2021/01/30 08:40:01;;;;;;;0.70;0.50;;;18.80;69.20;;;;;;5133775;27;20019;-28
2021/01/30 08:43:05;;;;;;;2.78;0.60;;;18.80;70.40;;;;;;5132385;27;20023;-27
2021/01/30 08:45:34;;;;;;;0.50;0.40;;;18.70;70.20;;;;;;5128624;27;20051;-30
2021/01/30 08:48:09;;;;;;;1.08;0.55;;;18.80;69.70;;;;;;5128704;27;20031;-30
2021/01/30 08:50:45;;;;;;;0.68;0.52;;;18.80;69.60;;;;;;5124538;27;20038;-29
2021/01/30 08:53:22;;;;;;;0.45;0.40;;;18.80;69.90;;;;;;5129224;27;20066;-29
2021/01/30 08:55:51;;;;;;;0.57;0.50;;;18.90;68.80;;;;;;5117787;27;20027;-29
2021/01/30 08:58:35;;;;;;;1.00;0.50;;;19.00;68.40;;;;;;5128117;27;20034;-31
2021/01/30 09:01:22;;;;;;;2.83;0.70;;;19.00;68.20;;;;;;5111481;27;20024;-33
2021/01/30 09:04:00;;;;;;;1.85;0.40;;;19.00;68.10;;;;;;5135487;27;20027;-26
2021/01/30 09:06:41;;;;;;;1.48;0.57;;;19.00;68.00;;;;;;5131155;27;20035;-27
2021/01/30 09:09:24;;;;;;;0.70;0.60;;;19.00;68.10;;;;;;5124923;27;20737;-27
2021/01/30 09:11:56;;;;;;;0.95;0.50;;;18.80;68.20;;;;;;5119592;27;20019;-30
2021/01/30 09:14:22;;;;;;;1.95;0.73;;;18.80;68.40;;;;;;5100404;27;20400;-30
2021/01/30 09:17:32;;;;;;;0.98;0.70;;;18.80;68.50;;;;;;5126800;27;20016;-29
2021/01/30 09:20:02;;;;;;;1.10;0.60;;;18.80;69.20;;;;;;5120366;27;20023;-30
2021/01/30 09:22:53;;;;;;;3.03;0.85;;;18.70;69.30;;;;;;5119037;27;20024;-28
2021/01/30 09:25:18;;;;;;;0.80;0.50;;;18.70;69.20;;;;;;5105494;27;20092;-31
2021/01/30 09:27:52;;;;;;;1.02;0.60;;;18.80;69.40;;;;;;5118590;27;20023;-31
2021/01/30 09:30:27;;;;;;;0.85;0.60;;;18.90;69.20;;;;;;5112040;27;20024;-28
2021/01/30 09:32:52;;;;;;;1.10;0.60;;;19.00;68.90;;;;;;5100790;27;20047;-30
2021/01/30 09:35:37;;;;;;;1.65;0.80;;;18.90;69.10;;;;;;5101098;28;20024;-32
2021/01/30 09:38:26;;;;;;;1.30;0.98;;;18.80;69.00;;;;;;5099207;27;20062;-30
2021/01/30 09:41:19;;;;;;;4.03;1.10;;;18.80;69.40;;;;;;5098537;27;20575;-31
2021/01/30 09:43:45;;;;;;;1.08;0.77;;;18.80;69.10;;;;;;5101652;27;20027;-30
2021/01/30 09:46:21;;;;;;;2.03;0.82;;;18.80;69.20;;;;;;5101778;28;20582;-26
2021/01/30 09:48:46;;;;;;;1.67;1.08;;;18.80;69.40;;;;;;5081433;28;20027;-30
2021/01/30 09:51:12;;;;;;;2.53;0.90;;;18.80;69.40;;;;;;5099490;28;20101;-29
2021/01/30 09:53:40;;;;;;;2.75;1.15;;;18.80;69.00;;;;;;5101582;27;20043;-30
2021/01/30 09:56:08;;;;;;;1.83;1.08;;;18.80;69.10;;;;;;5099918;27;20035;-31
2021/01/30 09:58:35;;;;;;;1.63;0.98;;;18.80;69.00;;;;;;5099129;27;20027;-34
2021/01/30 10:01:09;;;;;;;2.92;1.20;;;18.80;68.50;;;;;;5083442;28;20492;-27
2021/01/30 10:03:38;;;;;;;3.10;1.58;;;18.70;69.60;;;;;;5084602;28;20077;-31
2021/01/30 10:06:31;;;;;;;1.83;1.00;;;18.70;69.10;;;;;;5100992;28;20039;-29
2021/01/30 10:09:20;;;;;;;1.20;1.00;;;18.70;69.60;;;;;;5098843;27;20142;-31
2021/01/30 10:11:56;;;;;;;4.18;1.50;;;18.80;71.00;;;;;;5100775;27;20826;-27
2021/01/30 10:14:26;;;;;;;1.90;1.38;;;18.80;71.30;;;;;;5099255;27;20028;-26
2021/01/30 10:17:01;;;;;;;2.35;1.55;;;18.80;72.60;;;;;;5100354;28;20460;-35
2021/01/30 10:19:28;;;;;;;4.78;1.30;;;18.90;72.60;;;;;;5100691;28;20701;-38
2021/01/30 10:21:54;;;;;;;2.85;1.55;;;18.90;72.80;;;;;;5099858;28;20046;-32
2021/01/30 10:24:28;;;;;;;4.03;1.73;;;18.90;73.70;;;;;;5101494;28;20067;-30
2021/01/30 10:26:55;;;;;;;3.58;1.70;;;18.90;74.30;;;;;;5100979;27;20065;-30
2021/01/30 10:29:22;;;;;;;3.58;1.50;;;18.90;71.50;;;;;;5099097;27;20032;-34
2021/01/30 10:32:00;;;;;;;4.40;1.73;;;18.90;73.30;;;;;;5100435;27;20769;-29
2021/01/30 10:34:35;;;;;;;3.05;1.73;;;18.80;75.30;;;;;;5101553;28;20421;-35
2021/01/30 10:37:06;;;;;;;2.60;1.92;;;18.80;76.00;;;;;;5099976;28;20031;-31
2021/01/30 10:39:34;;;;;;;4.65;2.10;;;18.80;76.10;;;;;;5099859;28;20786;-30
2021/01/30 10:42:06;;;;;;;4.15;2.15;;;18.80;76.00;;;;;;5099623;27;20031;-30
2021/01/30 10:44:32;;;;;;;4.78;2.20;;;18.70;76.40;;;;;;5083250;28;20036;-30
2021/01/30 10:46:59;;;;;;;3.72;1.92;;;18.70;75.50;;;;;;5099220;28;20874;-29
2021/01/30 10:49:33;;;;;;;4.32;2.00;;;18.70;74.90;;;;;;5098561;28;20062;-31
2021/01/30 10:52:08;;;;;;;3.40;1.67;;;18.70;73.70;;;;;;5099628;28;20044;-30
2021/01/30 10:54:34;;;;;;;3.75;1.92;;;18.70;74.40;;;;;;5102180;28;21344;-32
2021/01/30 10:57:11;;;;;;;5.85;2.47;;;18.70;73.40;;;;;;5100572;27;20146;-30
2021/01/30 10:59:50;;;;;;;5.30;1.50;;;18.80;71.80;;;;;;5099834;28;20028;-33
2021/01/30 11:02:26;;;;;;;4.03;1.80;;;18.80;70.90;;;;;;5098071;27;20039;-31
2021/01/30 11:05:12;;;;;;;2.72;1.67;;;18.80;70.50;;;;;;4871568;27;10000537;-35
2021/01/30 11:07:42;;;;;;;3.30;1.70;;;18.70;70.90;;;;;;5097246;28;20267;-35
2021/01/30 11:10:18;;;;;;;12.85;2.50;;;18.80;70.00;;;;;;5098410;28;20031;-30
2021/01/30 11:12:43;;;;;;;4.05;1.92;;;18.80;71.60;;;;;;5100856;27;20024;-47
2021/01/30 11:15:16;;;;;;;3.90;1.60;;;18.90;70.30;;;;;;5097338;28;20035;-35
2021/01/30 11:17:42;;;;;;;4.47;1.90;;;18.80;70.70;;;;;;5098036;28;20031;-29
2021/01/30 11:20:10;;;;;;;3.47;1.90;;;18.80;71.20;;;;;;5098455;28;20416;-31
2021/01/30 11:22:35;;;;;;;2.47;1.33;;;18.90;70.40;;;;;;5099111;28;20032;-36
2021/01/30 11:25:04;;;;;;;3.47;1.70;;;18.90;69.50;;;;;;5099700;28;20044;-32
2021/01/30 11:27:33;;;;;;;2.40;1.50;;;19.00;70.30;;;;;;5100978;28;20043;-30
2021/01/30 11:30:11;;;;;;;3.55;2.00;;;19.10;69.70;;;;;;5098147;28;20035;-34
2021/01/30 11:32:36;;;;;;;3.10;2.00;;;19.20;70.30;;;;;;5098068;28;20035;-31
2021/01/30 11:35:03;;;;;;;2.78;1.63;;;19.10;69.20;;;;;;5098076;28;20043;-29
2021/01/30 11:37:28;;;;;;;4.35;1.88;;;19.10;69.30;;;;;;5098385;28;20097;-33
2021/01/30 11:39:54;;;;;;;3.58;1.90;;;19.10;69.10;;;;;;5099154;28;20459;-26
2021/01/30 11:42:20;;;;;;;3.47;2.13;;;19.20;69.50;;;;;;5100372;28;20027;-28
2021/01/30 11:44:46;;;;;;;3.40;1.80;;;19.20;68.80;;;;;;5100059;28;20036;-28
2021/01/30 11:47:11;;;;;;;2.60;1.60;;;19.10;69.50;;;;;;5098754;28;20040;-34
2021/01/30 11:49:37;;;;;;;3.72;1.80;;;19.10;69.70;;;;;;5095668;28;20651;-35
2021/01/30 11:52:03;;;;;;;3.08;1.60;;;19.10;69.30;;;;;;5096982;28;20100;-29
2021/01/30 11:54:29;;;;;;;2.70;1.75;;;19.20;69.80;;;;;;5097805;28;20059;-33
2021/01/30 11:56:54;;;;;;;4.60;2.47;;;19.30;69.50;;;;;;5096483;28;20119;-29
2021/01/30 11:59:20;;;;;;;2.42;1.63;;;19.20;69.40;;;;;;5096033;28;20032;-35
2021/01/30 12:01:45;;;;;;;3.13;2.03;;;19.30;69.00;;;;;;5095737;28;20708;-29
2021/01/30 12:04:11;;;;;;;4.07;1.80;;;19.30;69.00;;;;;;5096434;28;20119;-32
2021/01/30 12:06:37;;;;;;;3.80;1.83;;;19.30;68.90;;;;;;5097948;28;20451;-30
2021/01/30 12:09:03;;;;;;;4.35;2.22;;;19.50;68.60;;;;;;5095291;28;20026;-29
2021/01/30 12:11:29;;;;;;;3.13;1.90;;;19.50;68.20;;;;;;5096444;28;20024;-35
2021/01/30 12:13:55;;;;;;;4.38;2.00;;;19.60;68.20;;;;;;5099939;27;20396;-33
2021/01/30 12:16:22;;;;;;;4.20;2.13;;;19.50;69.00;;;;;;5101370;28;20036;-33
2021/01/30 12:18:48;;;;;;;2.85;1.77;;;19.40;70.30;;;;;;5100168;28;20036;-37
2021/01/30 12:21:14;;;;;;;6.45;2.20;;;19.30;70.40;;;;;;5102297;27;20505;-34
2021/01/30 12:23:39;;;;;;;5.07;2.13;;;19.30;70.60;;;;;;5104099;28;20051;-33
2021/01/30 12:26:05;;;;;;;5.15;2.45;;;19.30;69.80;;;;;;5105114;27;20047;-34
2021/01/30 12:28:35;;;;;;;2.45;1.73;;;19.30;71.00;;;;;;5084388;28;20043;-32
2021/01/30 12:31:01;;;;;;;3.38;1.88;;;19.20;71.00;;;;;;5101516;27;20115;-29
2021/01/30 12:33:27;;;;;;;6.03;2.60;;;19.10;71.10;;;;;;5102985;27;20109;-31
2021/01/30 12:35:53;;;;;;;6.13;2.33;;;19.10;71.00;;;;;;5102247;27;20039;-29
2021/01/30 12:38:18;;;;;;;3.70;2.30;;;19.20;71.00;;;;;;5100050;27;20047;-34
2021/01/30 12:40:46;;;;;;;3.65;2.00;;;19.10;70.70;;;;;;5100068;28;20035;-29
2021/01/30 12:43:12;;;;;;;3.20;1.55;;;19.20;70.70;;;;;;5100021;28;20104;-28
2021/01/30 12:45:37;;;;;;;3.10;2.13;;;19.20;70.80;;;;;;5100435;27;20054;-31
2021/01/30 12:48:03;;;;;;;3.60;1.60;;;19.20;70.50;;;;;;5098757;28;20036;-34
2021/01/30 12:50:29;;;;;;;3.40;2.08;;;19.20;71.00;;;;;;5099023;28;21446;-33
2021/01/30 12:52:55;;;;;;;4.53;2.00;;;19.30;71.00;;;;;;5102231;27;20035;-27
2021/01/30 12:55:21;;;;;;;6.63;2.30;;;19.30;71.10;;;;;;5101656;28;20042;-36
2021/01/30 12:57:46;;;;;;;4.55;2.03;;;19.30;70.50;;;;;;5102470;28;20038;-28
2021/01/30 13:00:19;;;;;;;5.28;1.77;;;19.30;70.80;;;;;;5100453;27;20039;-35
2021/01/30 13:02:44;;;;;;;3.90;2.20;;;19.30;71.00;;;;;;5101542;27;20040;-44
2021/01/30 13:05:11;;;;;;;3.55;1.95;;;19.20;70.90;;;;;;5100727;27;20036;-28
2021/01/30 13:07:36;;;;;;;3.95;1.75;;;19.20;72.30;;;;;;5101708;28;20078;-34
2021/01/30 13:10:06;;;;;;;2.80;1.70;;;19.20;72.50;;;;;;5100572;28;20078;-28
2021/01/30 13:12:32;;;;;;;4.50;1.75;;;19.20;72.90;;;;;;5100053;28;20032;-36
2021/01/30 13:14:57;;;;;;;2.45;2.10;;;19.30;74.00;;;;;;5101259;27;20031;-27
2021/01/30 13:17:23;;;;;;;3.47;1.55;;;19.20;73.30;;;;;;5101279;27;20093;-33
2021/01/30 13:19:49;;;;;;;5.03;2.53;;;19.30;73.30;;;;;;5100176;27;20036;-34
2021/01/30 13:22:14;;;;;;;11.85;3.08;;;19.30;72.30;;;;;;5101313;28;20031;-27
2021/01/30 13:24:42;;;;;;;4.20;2.55;;;19.40;71.30;;;;;;5102378;28;20115;-28
2021/01/30 13:27:08;;;;;;;2.97;1.90;;;19.40;72.80;;;;;;5101163;27;20047;-30
2021/01/30 13:29:34;;;;;;;3.60;2.08;;;19.40;71.70;;;;;;5099691;27;20031;-32
2021/01/30 13:32:00;;;;;;;3.53;2.03;;;19.40;71.40;;;;;;5100244;27;20043;-29
2021/01/30 13:34:26;;;;;;;4.05;2.25;;;19.60;70.70;;;;;;5102008;27;20030;-32
2021/01/30 13:36:52;;;;;;;5.63;2.20;;;19.60;70.60;;;;;;5101494;27;20031;-29
2021/01/30 13:39:18;;;;;;;6.30;2.60;;;19.50;70.00;;;;;;5100674;27;20020;-35
2021/01/30 13:41:44;;;;;;;4.22;2.70;;;19.30;69.70;;;;;;5100054;27;20031;-31
2021/01/30 13:44:09;;;;;;;3.85;1.80;;;19.30;70.00;;;;;;5099399;27;20032;-29
2021/01/30 13:46:35;;;;;;;4.38;2.45;;;19.40;70.00;;;;;;5102324;27;20035;-32
2021/01/30 13:49:01;;;;;;;6.72;2.35;;;19.40;70.40;;;;;;5100160;27;20028;-30
2021/01/30 13:51:26;;;;;;;6.70;2.40;;;19.30;71.40;;;;;;5100711;28;20512;-35
2021/01/30 13:53:52;;;;;;;7.95;2.78;;;19.20;70.30;;;;;;5100296;27;20051;-28
2021/01/30 13:56:17;;;;;;;4.47;2.22;;;19.20;70.10;;;;;;5097398;28;20065;-37
2021/01/30 13:58:43;;;;;;;5.60;2.03;;;19.20;70.00;;;;;;5099377;28;20067;-39
2021/01/30 14:01:09;;;;;;;3.60;2.10;;;19.30;70.00;;;;;;5100658;27;20032;-31
2021/01/30 14:03:34;;;;;;;6.00;2.33;;;19.30;70.10;;;;;;5102517;28;20035;-29
2021/01/30 14:06:00;;;;;;;4.03;2.08;;;19.30;70.20;;;;;;5101288;27;20078;-33
2021/01/30 14:08:26;;;;;;;4.68;1.90;;;19.40;70.00;;;;;;5106948;27;20026;-33
2021/01/30 14:10:51;;;;;;;5.38;2.08;;;19.40;69.10;;;;;;5110457;27;20484;-30
2021/01/30 14:13:18;;;;;;;3.75;1.92;;;19.40;69.40;;;;;;5095782;27;20036;-30
2021/01/30 14:15:43;;;;;;;3.67;1.80;;;19.50;69.80;;;;;;5106801;27;20040;-31
2021/01/30 14:18:09;;;;;;;2.22;1.70;;;19.50;68.30;;;;;;5107782;27;20436;-30
2021/01/30 14:20:34;;;;;;;5.68;2.15;;;19.40;68.90;;;;;;5110913;27;20051;-32
2021/01/30 14:23:02;;;;;;;4.22;1.95;;;19.30;69.50;;;;;;5100227;28;20044;-31
2021/01/30 14:25:28;;;;;;;5.28;1.90;;;19.20;69.70;;;;;;5103880;27;20413;-33
2021/01/30 14:27:54;;;;;;;3.25;1.73;;;19.10;69.70;;;;;;5108188;27;20040;-33
2021/01/30 14:30:20;;;;;;;3.35;2.20;;;19.10;69.90;;;;;;5112854;27;20056;-32
2021/01/30 14:32:46;;;;;;;2.60;1.77;;;19.00;70.10;;;;;;5107185;27;20055;-35
2021/01/30 14:35:13;;;;;;;3.45;1.98;;;19.10;69.90;;;;;;5100584;27;20130;-35
2021/01/30 14:37:39;;;;;;;5.25;2.60;;;19.20;69.80;;;;;;5108735;27;20044;-28
2021/01/30 14:40:06;;;;;;;3.55;2.10;;;19.20;70.00;;;;;;5115419;27;20556;-32
2021/01/30 14:42:32;;;;;;;1.95;1.67;;;19.20;69.30;;;;;;5113544;27;20046;-34
2021/01/30 14:44:58;;;;;;;4.70;1.88;;;19.20;69.40;;;;;;5102562;27;20044;-28
2021/01/30 14:47:23;;;;;;;2.72;1.70;;;19.10;69.60;;;;;;5107636;27;20428;-30
2021/01/30 14:49:49;;;;;;;3.05;1.70;;;19.00;69.50;;;;;;5097302;27;20055;-32
2021/01/30 14:52:15;;;;;;;2.25;1.63;;;19.00;69.80;;;;;;5104020;27;20108;-29
2021/01/30 14:54:40;;;;;;;3.35;1.33;;;19.10;69.90;;;;;;5112763;27;20032;-36
2021/01/30 14:57:06;;;;;;;3.25;1.90;;;19.10;69.60;;;;;;5106266;27;20040;-31
2021/01/30 14:59:31;;;;;;;3.30;1.60;;;19.10;69.70;;;;;;5097437;27;20046;-34
2021/01/30 15:01:57;;;;;;;3.17;1.75;;;19.00;69.90;;;;;;5109624;27;20062;-32
2021/01/30 15:04:24;;;;;;;4.35;1.90;;;19.10;70.70;;;;;;5099030;27;20399;-34
2021/01/30 15:06:49;;;;;;;2.33;1.48;;;19.10;69.30;;;;;;5100528;27;20039;-29
2021/01/30 15:09:15;;;;;;;2.95;1.70;;;19.10;69.50;;;;;;5112966;27;20577;-30
2021/01/30 15:11:40;;;;;;;3.85;1.90;;;19.20;69.20;;;;;;5110536;27;20058;-35
2021/01/30 15:14:06;;;;;;;2.05;1.77;;;19.30;68.90;;;;;;5104070;27;20108;-32
2021/01/30 15:16:31;;;;;;;1.70;1.27;;;19.20;70.00;;;;;;5108523;27;20571;-32
2021/01/30 15:18:57;;;;;;;2.67;1.60;;;19.30;69.00;;;;;;5094482;28;20063;-33
2021/01/30 15:21:24;;;;;;;3.88;1.77;;;19.30;68.50;;;;;;5101015;28;20043;-29
2021/01/30 15:23:50;;;;;;;2.47;1.30;;;19.30;68.80;;;;;;5098494;27;20055;-31
2021/01/30 15:26:16;;;;;;;4.07;1.77;;;19.20;68.80;;;;;;5100036;27;20055;-29
2021/01/30 15:28:41;;;;;;;3.65;1.40;;;19.10;68.90;;;;;;5106947;27;20389;-29
2021/01/30 15:31:07;;;;;;;1.60;1.38;;;19.10;69.20;;;;;;5110591;27;20077;-31
2021/01/30 15:33:33;;;;;;;3.00;1.30;;;19.10;69.30;;;;;;5103806;27;20059;-32
2021/01/30 15:35:58;;;;;;;2.90;1.20;;;19.20;68.90;;;;;;5099866;27;20044;-33
2021/01/30 15:38:24;;;;;;;3.55;1.55;;;19.20;68.70;;;;;;5103178;27;20389;-34
2021/01/30 15:40:50;;;;;;;3.65;1.60;;;19.20;68.90;;;;;;4746217;27;9999717;-32
2021/01/30 15:43:16;;;;;;;2.70;1.58;;;19.20;68.50;;;;;;5109334;27;20040;-35
2021/01/30 15:45:41;;;;;;;2.20;1.50;;;19.20;68.40;;;;;;5111810;27;20062;-36
2021/01/30 15:48:07;;;;;;;2.80;2.03;;;19.10;68.90;;;;;;5108749;27;20509;-30
2021/01/30 15:50:32;;;;;;;2.15;1.58;;;19.10;69.00;;;;;;5108754;27;20131;-31
2021/01/30 15:52:59;;;;;;;2.35;1.52;;;19.10;68.80;;;;;;5111115;27;20104;-30
2021/01/30 15:55:25;;;;;;;2.72;1.92;;;19.10;69.00;;;;;;5111875;27;20051;-31
2021/01/30 15:57:51;;;;;;;1.77;1.25;;;19.00;69.10;;;;;;5115496;27;20047;-31
2021/01/30 16:00:18;;;;;;;2.58;1.50;;;19.00;69.00;;;;;;5115073;27;20035;-30
2021/01/30 16:02:44;;;;;;;3.13;1.25;;;19.00;69.10;;;;;;5115786;27;20524;-30
2021/01/30 16:05:10;;;;;;;2.28;1.52;;;19.00;69.10;;;;;;5108461;27;20134;-29
2021/01/30 16:07:35;;;;;;;4.07;1.85;;;18.90;68.70;;;;;;5100572;27;20036;-32
2021/01/30 16:10:01;;;;;;;2.47;1.45;;;18.90;69.00;;;;;;5110611;27;20039;-30
2021/01/30 16:12:27;;;;;;;2.70;1.70;;;18.90;68.70;;;;;;5112858;27;20086;-30
2021/01/30 16:14:52;;;;;;;7.38;1.60;;;18.90;68.70;;;;;;5109713;27;20397;-32
2021/01/30 16:17:18;;;;;;;2.42;1.55;;;18.90;69.40;;;;;;5107560;27;20039;-28
2021/01/30 16:19:44;;;;;;;2.42;1.45;;;18.90;68.60;;;;;;5106938;27;20051;-27
2021/01/30 16:22:09;;;;;;;2.05;1.80;;;18.90;68.60;;;;;;5106526;27;20047;-31
2021/01/30 16:24:35;;;;;;;1.98;1.58;;;18.90;68.50;;;;;;5116013;27;20040;-33
2021/01/30 16:27:03;;;;;;;1.40;1.20;;;18.90;68.40;;;;;;5115583;27;20040;-31
2021/01/30 16:29:33;;;;;;;2.10;1.52;;;18.90;68.40;;;;;;5108995;27;20043;-33
2021/01/30 16:31:59;;;;;;;1.60;1.33;;;18.90;68.40;;;;;;5104993;27;20134;-27
2021/01/30 16:34:24;;;;;;;1.85;1.52;;;18.90;68.30;;;;;;5103909;27;20074;-34
2021/01/30 16:36:50;;;;;;;1.92;1.73;;;18.90;68.40;;;;;;5112630;27;20036;-35
2021/01/30 16:39:16;;;;;;;2.80;1.58;;;18.90;68.40;;;;;;5113602;27;20051;-31
2021/01/30 16:41:41;;;;;;;2.17;1.50;;;18.90;68.20;;;;;;5113284;27;20101;-28
2021/01/30 16:44:07;;;;;;;1.30;1.20;;;18.90;68.20;;;;;;5108668;27;20127;-35
2021/01/30 16:46:32;;;;;;;2.05;1.40;;;18.90;68.20;;;;;;5106486;27;20513;-29
2021/01/30 16:48:58;;;;;;;1.85;1.65;;;18.90;68.10;;;;;;5110579;27;20043;-31
2021/01/30 16:51:23;;;;;;;1.60;1.50;;;18.90;68.20;;;;;;5105854;27;20052;-29
2021/01/30 16:53:49;;;;;;;3.10;1.58;;;18.90;68.10;;;;;;5107684;27;20045;-26
2021/01/30 16:56:15;;;;;;;2.65;1.50;;;18.80;67.90;;;;;;5114286;27;20442;-32
2021/01/30 16:58:41;;;;;;;1.83;1.13;;;18.80;67.90;;;;;;5104934;27;20066;-38
2021/01/30 17:01:11;;;;;;;1.25;1.15;;;18.90;68.00;;;;;;5111586;27;20061;-30
2021/01/30 17:03:37;;;;;;;1.30;1.20;;;18.80;67.80;;;;;;5114933;27;20153;-29
2021/01/30 17:06:03;;;;;;;1.98;1.15;;;18.90;67.90;;;;;;5114308;27;20497;-32
2021/01/30 17:08:29;;;;;;;1.55;1.23;;;18.80;67.80;;;;;;5107342;27;20043;-33
2021/01/30 17:10:54;;;;;;;2.22;1.30;;;18.80;68.00;;;;;;5101535;27;20047;-31
2021/01/30 17:13:20;;;;;;;2.63;1.23;;;18.90;67.70;;;;;;5104141;27;20086;-35
2021/01/30 17:15:46;;;;;;;1.90;1.40;;;19.00;68.20;;;;;;5106352;27;20050;-36
2021/01/30 17:18:11;;;;;;;3.83;1.55;;;19.00;68.30;;;;;;5109845;27;20091;-36
2021/01/30 17:20:37;;;;;;;2.25;1.23;;;19.00;68.30;;;;;;5105453;27;20060;-28
2021/01/30 17:23:03;;;;;;;6.40;2.08;;;19.00;69.60;;;;;;5110068;28;20126;-32
2021/01/30 17:25:28;;;;;;;2.67;1.25;;;19.00;71.70;;;;;;5108431;27;20496;-34
2021/01/30 17:27:54;;;;;;;2.15;1.83;;;19.00;71.70;;;;;;4749139;27;10000223;-35
2021/01/30 17:30:20;;;;;;;2.60;1.42;;;19.10;70.60;;;;;;5117275;27;20048;-29
2021/01/30 17:32:46;;;;;;;4.97;1.80;;;19.00;72.80;;;;;;5107309;27;20040;-32
2021/01/30 17:35:11;;;;;;;5.70;1.85;;;19.00;72.70;;;;;;5109118;27;20394;-35
2021/01/30 17:37:37;;;;;;;5.00;2.30;;;19.00;74.60;;;;;;5098617;28;20447;-30
2021/01/30 17:40:04;;;;;;;6.40;2.15;;;18.90;75.30;;;;;;5112133;27;20119;-33
2021/01/30 17:42:29;;;;;;;7.25;2.28;;;18.90;75.70;;;;;;5106903;27;20032;-34
2021/01/30 17:44:55;;;;;;;10.43;2.78;;;18.90;75.20;;;;;;5099885;27;20047;-36
2021/01/30 17:47:20;;;;;;;2.88;1.90;;;18.90;75.40;;;;;;5098411;27;20138;-33
2021/01/30 17:49:46;;;;;;;1.90;1.48;;;18.80;73.40;;;;;;5102248;27;20061;-30
2021/01/30 17:52:12;;;;;;;3.70;1.80;;;18.80;73.50;;;;;;5102938;27;20081;-33
2021/01/30 17:54:37;;;;;;;4.13;2.03;;;18.80;73.20;;;;;;5106349;27;20122;-34
2021/01/30 17:57:03;;;;;;;1.52;1.38;;;18.70;72.60;;;;;;5107676;27;20052;-31
2021/01/30 17:59:29;;;;;;;3.90;1.73;;;18.70;72.90;;;;;;5108249;27;20074;-32
2021/01/30 18:01:55;;;;;;;1.90;1.70;;;18.70;73.60;;;;;;5106770;27;20061;-31
2021/01/30 18:04:20;;;;;;;4.15;1.80;;;18.70;72.70;;;;;;5105529;27;20044;-29
2021/01/30 18:06:46;;;;;;;1.98;1.48;;;18.80;72.20;;;;;;5108802;27;20086;-32
2021/01/30 18:09:12;;;;;;;1.48;1.20;;;18.80;72.80;;;;;;5107610;27;20116;-32
2021/01/30 18:11:37;;;;;;;5.13;1.27;;;18.80;71.90;;;;;;5108560;27;20087;-36
2021/01/30 18:14:04;;;;;;;6.00;1.80;;;18.80;73.00;;;;;;5109636;27;20043;-40
2021/01/30 18:16:31;;;;;;;2.08;1.88;;;18.80;71.40;;;;;;5109213;27;20046;-31
2021/01/30 18:18:57;;;;;;;2.38;2.10;;;18.90;71.00;;;;;;5108446;27;20067;-33
2021/01/30 18:21:22;;;;;;;18.17;10.05;;;18.90;70.30;;;;;;5108964;27;20079;-33
2021/01/30 18:23:48;;;;;;;81.22;36.45;;;18.90;70.80;;;;;;5109518;27;20047;-32
2021/01/30 18:26:13;;;;;;;98.22;42.50;;;18.90;70.40;;;;;;5103209;27;20044;-32
2021/01/30 18:28:39;;;;;;;97.22;43.50;;;18.90;70.40;;;;;;5104303;27;20039;-37
2021/01/30 18:31:05;;;;;;;81.97;37.85;;;18.90;70.50;;;;;;5105184;27;20042;-31
2021/01/30 18:33:30;;;;;;;62.08;29.92;;;18.90;70.30;;;;;;5102172;27;20059;-28
2021/01/30 18:35:56;;;;;;;65.80;30.25;;;18.90;70.10;;;;;;5102438;27;20052;-34
2021/01/30 18:38:22;;;;;;;68.40;32.88;;;18.90;70.20;;;;;;5106833;27;20088;-32
2021/01/30 18:40:47;;;;;;;62.92;29.30;;;19.00;70.40;;;;;;5098559;27;20071;-30
2021/01/30 18:43:13;;;;;;;60.65;28.70;;;19.00;69.80;;;;;;5106068;27;23487;-31
2021/01/30 18:45:40;;;;;;;86.38;43.72;;;19.00;70.00;;;;;;5105873;27;20058;-31
2021/01/30 18:48:06;;;;;;;57.88;29.33;;;19.00;70.00;;;;;;5089623;27;20064;-33
2021/01/30 18:50:31;;;;;;;62.35;29.80;;;19.00;69.80;;;;;;5100954;27;20089;-31
2021/01/30 18:52:57;;;;;;;58.30;29.65;;;19.00;69.80;;;;;;5104221;27;20104;-35
2021/01/30 18:55:23;;;;;;;54.25;27.73;;;19.00;69.90;;;;;;5094559;28;20043;-38
2021/01/30 18:57:48;;;;;;;52.45;27.17;;;19.00;70.20;;;;;;5093748;27;20040;-33
2021/01/30 19:00:17;;;;;;;51.72;24.75;;;19.00;70.10;;;;;;5096430;28;20125;-36
2021/01/30 19:02:42;;;;;;;46.13;22.55;;;19.00;69.90;;;;;;5093506;27;20058;-37
2021/01/30 19:05:08;;;;;;;52.50;23.50;;;19.00;69.60;;;;;;5096331;27;20044;-35
2021/01/30 19:07:35;;;;;;;52.38;23.83;;;19.10;70.00;;;;;;5098322;27;20047;-29
2021/01/30 19:10:01;;;;;;;45.42;23.85;;;19.10;69.90;;;;;;5095684;27;20054;-33
2021/01/30 19:12:27;;;;;;;43.50;22.60;;;19.10;69.90;;;;;;5099763;27;20492;-33
2021/01/30 19:14:52;;;;;;;48.72;23.75;;;19.10;69.40;;;;;;5098068;27;20123;-36
2021/01/30 19:17:19;;;;;;;45.53;25.05;;;19.20;69.40;;;;;;5094380;27;20049;-35
2021/01/30 19:19:44;;;;;;;39.75;20.48;;;19.20;69.40;;;;;;5091489;27;20043;-32
2021/01/30 19:22:10;;;;;;;42.10;22.27;;;19.20;69.20;;;;;;5096150;27;20402;-33
2021/01/30 19:24:37;;;;;;;40.05;22.38;;;19.20;69.30;;;;;;5102936;27;20082;-32
2021/01/30 19:27:05;;;;;;;38.65;20.13;;;19.20;69.90;;;;;;5104297;27;20055;-35
2021/01/30 19:29:32;;;;;;;42.15;20.42;;;19.20;68.90;;;;;;4745799;27;10000126;-37
2021/01/30 19:31:57;;;;;;;36.30;18.27;;;19.20;68.80;;;;;;5095944;27;20093;-34
2021/01/30 19:34:23;;;;;;;37.72;19.15;;;19.20;68.40;;;;;;5101063;27;20473;-32
2021/01/30 19:36:48;;;;;;;37.20;18.90;;;19.30;68.60;;;;;;5101510;27;20075;-33
2021/01/30 19:39:15;;;;;;;39.40;20.63;;;19.20;69.00;;;;;;5101621;27;20073;-33
2021/01/30 19:41:40;;;;;;;36.13;19.10;;;19.20;68.30;;;;;;5098862;27;20167;-32
2021/01/30 19:44:07;;;;;;;34.17;18.67;;;19.30;68.30;;;;;;5095052;27;20131;-36
2021/01/30 19:46:36;;;;;;;33.35;17.90;;;19.20;68.40;;;;;;5098310;27;20056;-33
2021/01/30 19:49:01;;;;;;;29.52;16.25;;;19.20;68.10;;;;;;5105073;27;20047;-29
2021/01/30 19:51:27;;;;;;;29.73;17.05;;;19.30;68.20;;;;;;5105099;27;20048;-32
2021/01/30 19:53:52;;;;;;;29.23;17.73;;;19.20;68.00;;;;;;5103349;27;20054;-34
2021/01/30 19:56:18;;;;;;;31.45;17.45;;;19.20;68.00;;;;;;5102940;27;20163;-35
2021/01/30 19:58:44;;;;;;;25.98;15.90;;;19.30;68.10;;;;;;5102389;27;20036;-31